Ashland, Oregon
Current Conditions -  °F | °C
As of 4:53 PM on Wednesday 22 Oct 2014 (Local Time) from KMFR Reporting Station
Overcast Overcast  
Wind Chill: 68°   Ceiling: 6500
Heat Index: 68°   Visibility: 10mi
Dew Point: 47°   Wind: 14mph
Humidity: 47%   Direction: 210°SSW
Pressure: 29.85"   Gusts: NA
Location:  42.2°N, 122.71°W
Report Text: KMFR 222353Z 21012KT 10SM BKN065 BKN080 OVC095 20/08 A2985 RMK AO2 SLP104 T02000083 10211 20133 55009
Loading
Personal Weather Stations






























Interactive Weather Map
Tropical Storm Tracking
New forecast layout! Learn more

10-Day Weather Forecast

Advertisements
Track Severe Weather on mobile